Green Mountain Falls, Colorado
Current Conditions -  °F | °C
As of 1:58 PM on Thursday 18 Dec 2014 (Local Time) from KAFF Reporting Station
Scattered Clouds Scattered Clouds  
Wind Chill: 37°   Ceiling: Unl
Heat Index: 41°   Visibility: 10mi
Dew Point: 24°   Wind: 6mph
Humidity: 52%   Direction: 170°S
Pressure: 29.98"   Gusts: NA
Location:  38.93°N, 105.02°W
Report Text: KAFF 182058Z 17005KT 10SM FEW018 FEW030 FEW050 SCT200 05/M04 A2998 RMK AO2A SLP153 T00491043 57016
Loading
Personal Weather Stations






























Interactive Weather Map New forecast layout! Learn more

10-Day Weather Forecast

Advertisements
Track Severe Weather on mobile